sensor_id;sensor_type;location;lat;lon;timestamp;P1;durP1;ratioP1;P2;durP2;ratioP2
69417;SDS011;56610;48.872;2.400;2022-09-23T00:00:33;5.72;;;4.10;;
69417;SDS011;56610;48.872;2.400;2022-09-23T00:02:59;5.47;;;4.22;;
69417;SDS011;56610;48.872;2.400;2022-09-23T00:05:45;7.15;;;4.15;;
69417;SDS011;56610;48.872;2.400;2022-09-23T00:08:22;5.32;;;3.75;;
69417;SDS011;56610;48.872;2.400;2022-09-23T00:10:48;6.38;;;4.00;;
69417;SDS011;56610;48.872;2.400;2022-09-23T00:13:14;5.22;;;4.10;;
69417;SDS011;56610;48.872;2.400;2022-09-23T00:15:40;7.40;;;4.10;;
69417;SDS011;56610;48.872;2.400;2022-09-23T00:18:06;7.32;;;4.22;;
69417;SDS011;56610;48.872;2.400;2022-09-23T00:20:32;5.68;;;4.72;;
69417;SDS011;56610;48.872;2.400;2022-09-23T00:22:59;6.75;;;4.75;;
69417;SDS011;56610;48.872;2.400;2022-09-23T00:25:25;6.18;;;4.70;;
69417;SDS011;56610;48.872;2.400;2022-09-23T00:27:53;5.53;;;4.63;;
69417;SDS011;56610;48.872;2.400;2022-09-23T00:30:19;7.15;;;4.90;;
69417;SDS011;56610;48.872;2.400;2022-09-23T00:32:47;6.00;;;4.35;;
69417;SDS011;56610;48.872;2.400;2022-09-23T00:35:13;6.80;;;4.47;;
69417;SDS011;56610;48.872;2.400;2022-09-23T00:37:39;5.82;;;4.40;;
69417;SDS011;56610;48.872;2.400;2022-09-23T00:40:04;6.60;;;4.57;;
69417;SDS011;56610;48.872;2.400;2022-09-23T00:42:32;6.88;;;4.63;;
69417;SDS011;56610;48.872;2.400;2022-09-23T00:44:58;5.40;;;4.20;;
69417;SDS011;56610;48.872;2.400;2022-09-23T00:52:52;5.53;;;4.18;;
69417;SDS011;56610;48.872;2.400;2022-09-23T00:55:32;7.28;;;4.97;;
69417;SDS011;56610;48.872;2.400;2022-09-23T00:58:30;6.90;;;5.00;;
69417;SDS011;56610;48.872;2.400;2022-09-23T01:00:58;7.45;;;5.00;;
69417;SDS011;56610;48.872;2.400;2022-09-23T01:03:25;6.45;;;5.32;;
69417;SDS011;56610;48.872;2.400;2022-09-23T01:05:51;8.40;;;5.20;;
69417;SDS011;56610;48.872;2.400;2022-09-23T01:08:17;6.85;;;4.40;;
69417;SDS011;56610;48.872;2.400;2022-09-23T01:13:22;7.18;;;5.07;;
69417;SDS011;56610;48.872;2.400;2022-09-23T01:18:52;5.15;;;3.97;;
69417;SDS011;56610;48.872;2.400;2022-09-23T01:21:31;4.80;;;4.05;;
69417;SDS011;56610;48.872;2.400;2022-09-23T01:27:09;5.90;;;4.20;;
69417;SDS011;56610;48.872;2.400;2022-09-23T01:35:28;4.85;;;3.58;;
69417;SDS011;56610;48.872;2.400;2022-09-23T01:38:09;5.38;;;3.97;;
69417;SDS011;56610;48.872;2.400;2022-09-23T01:43:57;5.82;;;3.53;;
69417;SDS011;56610;48.872;2.400;2022-09-23T01:46:40;6.40;;;4.22;;
69417;SDS011;56610;48.872;2.400;2022-09-23T01:49:14;6.03;;;4.32;;
69417;SDS011;56610;48.872;2.400;2022-09-23T01:51:48;5.07;;;3.78;;
69417;SDS011;56610;48.872;2.400;2022-09-23T01:54:20;7.05;;;4.45;;
69417;SDS011;56610;48.872;2.400;2022-09-23T01:56:52;4.57;;;3.53;;
69417;SDS011;56610;48.872;2.400;2022-09-23T01:59:35;6.82;;;3.60;;
69417;SDS011;56610;48.872;2.400;2022-09-23T02:02:08;4.60;;;3.17;;
69417;SDS011;56610;48.872;2.400;2022-09-23T02:04:47;6.10;;;3.42;;
69417;SDS011;56610;48.872;2.400;2022-09-23T02:07:19;6.13;;;3.22;;
69417;SDS011;56610;48.872;2.400;2022-09-23T02:09:52;4.47;;;3.17;;
69417;SDS011;56610;48.872;2.400;2022-09-23T02:12:22;4.65;;;3.53;;
69417;SDS011;56610;48.872;2.400;2022-09-23T02:14:58;5.57;;;3.20;;
69417;SDS011;56610;48.872;2.400;2022-09-23T02:17:30;5.05;;;3.50;;
69417;SDS011;56610;48.872;2.400;2022-09-23T02:20:02;4.20;;;3.78;;
69417;SDS011;56610;48.872;2.400;2022-09-23T02:22:38;5.25;;;4.05;;
69417;SDS011;56610;48.872;2.400;2022-09-23T02:25:13;5.93;;;3.67;;
69417;SDS011;56610;48.872;2.400;2022-09-23T02:30:22;5.43;;;3.45;;
69417;SDS011;56610;48.872;2.400;2022-09-23T02:35:25;4.15;;;3.40;;
69417;SDS011;56610;48.872;2.400;2022-09-23T02:38:19;5.72;;;3.55;;
69417;SDS011;56610;48.872;2.400;2022-09-23T02:41:03;4.00;;;3.55;;
69417;SDS011;56610;48.872;2.400;2022-09-23T02:44:02;6.07;;;3.92;;
69417;SDS011;56610;48.872;2.400;2022-09-23T02:46:32;6.68;;;3.65;;
69417;SDS011;56610;48.872;2.400;2022-09-23T02:51:48;5.63;;;3.60;;
69417;SDS011;56610;48.872;2.400;2022-09-23T02:54:18;4.90;;;3.83;;
69417;SDS011;56610;48.872;2.400;2022-09-23T02:56:45;5.07;;;3.75;;
69417;SDS011;56610;48.872;2.400;2022-09-23T02:59:14;6.03;;;3.53;;
69417;SDS011;56610;48.872;2.400;2022-09-23T03:05:08;3.60;;;3.30;;
69417;SDS011;56610;48.872;2.400;2022-09-23T03:12:44;5.65;;;3.67;;
69417;SDS011;56610;48.872;2.400;2022-09-23T03:15:40;4.75;;;3.58;;
69417;SDS011;56610;48.872;2.400;2022-09-23T03:18:17;8.40;;;3.35;;
69417;SDS011;56610;48.872;2.400;2022-09-23T03:21:31;6.45;;;3.08;;
69417;SDS011;56610;48.872;2.400;2022-09-23T03:23:45;4.88;;;3.20;;
69417;SDS011;56610;48.872;2.400;2022-09-23T03:26:19;5.13;;;3.25;;
69417;SDS011;56610;48.872;2.400;2022-09-23T03:28:48;5.60;;;2.95;;
69417;SDS011;56610;48.872;2.400;2022-09-23T03:31:14;6.10;;;2.85;;
69417;SDS011;56610;48.872;2.400;2022-09-23T03:33:42;6.55;;;3.28;;
69417;SDS011;56610;48.872;2.400;2022-09-23T03:36:20;4.03;;;2.95;;
69417;SDS011;56610;48.872;2.400;2022-09-23T03:39:10;3.50;;;2.72;;
69417;SDS011;56610;48.872;2.400;2022-09-23T03:41:46;4.47;;;2.80;;
69417;SDS011;56610;48.872;2.400;2022-09-23T03:44:15;5.68;;;3.00;;
69417;SDS011;56610;48.872;2.400;2022-09-23T03:46:41;4.40;;;2.53;;
69417;SDS011;56610;48.872;2.400;2022-09-23T03:51:39;4.43;;;3.00;;
69417;SDS011;56610;48.872;2.400;2022-09-23T03:54:05;4.32;;;2.80;;
69417;SDS011;56610;48.872;2.400;2022-09-23T03:56:30;5.43;;;3.15;;
69417;SDS011;56610;48.872;2.400;2022-09-23T03:58:56;3.30;;;2.78;;
69417;SDS011;56610;48.872;2.400;2022-09-23T04:01:21;3.67;;;2.97;;
69417;SDS011;56610;48.872;2.400;2022-09-23T04:03:47;4.78;;;3.10;;
69417;SDS011;56610;48.872;2.400;2022-09-23T04:06:13;5.38;;;3.22;;
69417;SDS011;56610;48.872;2.400;2022-09-23T04:08:38;5.20;;;3.38;;
69417;SDS011;56610;48.872;2.400;2022-09-23T04:11:04;4.60;;;3.10;;
69417;SDS011;56610;48.872;2.400;2022-09-23T04:13:30;6.30;;;5.50;;
69417;SDS011;56610;48.872;2.400;2022-09-23T04:15:56;5.63;;;3.35;;
69417;SDS011;56610;48.872;2.400;2022-09-23T04:18:22;4.10;;;3.08;;
69417;SDS011;56610;48.872;2.400;2022-09-23T04:20:47;4.20;;;3.20;;
69417;SDS011;56610;48.872;2.400;2022-09-23T04:23:13;4.82;;;3.67;;
69417;SDS011;56610;48.872;2.400;2022-09-23T04:25:45;5.07;;;3.42;;
69417;SDS011;56610;48.872;2.400;2022-09-23T04:28:11;3.88;;;3.10;;
69417;SDS011;56610;48.872;2.400;2022-09-23T04:30:38;4.53;;;3.40;;
69417;SDS011;56610;48.872;2.400;2022-09-23T04:33:08;3.70;;;3.13;;
69417;SDS011;56610;48.872;2.400;2022-09-23T04:35:35;5.57;;;3.80;;
69417;SDS011;56610;48.872;2.400;2022-09-23T04:38:02;5.28;;;3.80;;
69417;SDS011;56610;48.872;2.400;2022-09-23T04:40:28;5.07;;;3.88;;
69417;SDS011;56610;48.872;2.400;2022-09-23T04:42:53;5.80;;;3.22;;
69417;SDS011;56610;48.872;2.400;2022-09-23T04:45:19;6.03;;;3.88;;
69417;SDS011;56610;48.872;2.400;2022-09-23T04:47:45;5.40;;;3.70;;
69417;SDS011;56610;48.872;2.400;2022-09-23T04:50:10;4.97;;;3.30;;
69417;SDS011;56610;48.872;2.400;2022-09-23T04:52:36;8.77;;;3.75;;
69417;SDS011;56610;48.872;2.400;2022-09-23T04:55:22;8.52;;;4.22;;
69417;SDS011;56610;48.872;2.400;2022-09-23T04:57:47;7.03;;;4.47;;
69417;SDS011;56610;48.872;2.400;2022-09-23T05:00:13;6.72;;;4.20;;
69417;SDS011;56610;48.872;2.400;2022-09-23T05:02:46;6.43;;;3.78;;
69417;SDS011;56610;48.872;2.400;2022-09-23T05:05:13;5.28;;;4.00;;
69417;SDS011;56610;48.872;2.400;2022-09-23T05:07:45;4.32;;;3.83;;
69417;SDS011;56610;48.872;2.400;2022-09-23T05:10:12;5.47;;;3.30;;
69417;SDS011;56610;48.872;2.400;2022-09-23T05:12:38;9.43;;;4.43;;
69417;SDS011;56610;48.872;2.400;2022-09-23T05:15:04;3.35;;;3.00;;
69417;SDS011;56610;48.872;2.400;2022-09-23T05:17:30;7.35;;;3.78;;
69417;SDS011;56610;48.872;2.400;2022-09-23T05:19:56;6.45;;;4.00;;
69417;SDS011;56610;48.872;2.400;2022-09-23T05:22:23;5.65;;;4.00;;
69417;SDS011;56610;48.872;2.400;2022-09-23T05:24:50;7.68;;;4.13;;
69417;SDS011;56610;48.872;2.400;2022-09-23T05:27:16;7.13;;;4.30;;
69417;SDS011;56610;48.872;2.400;2022-09-23T05:29:42;6.15;;;4.07;;
69417;SDS011;56610;48.872;2.400;2022-09-23T05:32:08;8.70;;;4.25;;
69417;SDS011;56610;48.872;2.400;2022-09-23T05:34:34;6.43;;;4.00;;
69417;SDS011;56610;48.872;2.400;2022-09-23T05:36:59;7.28;;;4.40;;
69417;SDS011;56610;48.872;2.400;2022-09-23T05:39:25;7.43;;;4.20;;
69417;SDS011;56610;48.872;2.400;2022-09-23T05:41:50;7.03;;;4.15;;
69417;SDS011;56610;48.872;2.400;2022-09-23T05:44:17;7.70;;;4.65;;
69417;SDS011;56610;48.872;2.400;2022-09-23T05:46:43;7.75;;;5.22;;
69417;SDS011;56610;48.872;2.400;2022-09-23T05:49:08;5.70;;;4.25;;
69417;SDS011;56610;48.872;2.400;2022-09-23T05:51:34;6.03;;;4.18;;
69417;SDS011;56610;48.872;2.400;2022-09-23T05:54:00;6.85;;;4.63;;
69417;SDS011;56610;48.872;2.400;2022-09-23T05:56:28;7.07;;;4.35;;
69417;SDS011;56610;48.872;2.400;2022-09-23T05:58:54;8.75;;;4.53;;
69417;SDS011;56610;48.872;2.400;2022-09-23T06:01:22;9.10;;;4.70;;
69417;SDS011;56610;48.872;2.400;2022-09-23T06:03:50;6.72;;;4.28;;
69417;SDS011;56610;48.872;2.400;2022-09-23T06:06:20;5.90;;;4.00;;
69417;SDS011;56610;48.872;2.400;2022-09-23T06:08:52;11.52;;;4.57;;
69417;SDS011;56610;48.872;2.400;2022-09-23T06:11:17;9.63;;;5.07;;
69417;SDS011;56610;48.872;2.400;2022-09-23T06:13:46;8.73;;;4.70;;
69417;SDS011;56610;48.872;2.400;2022-09-23T06:16:13;6.13;;;4.32;;
69417;SDS011;56610;48.872;2.400;2022-09-23T06:18:40;5.80;;;4.05;;
69417;SDS011;56610;48.872;2.400;2022-09-23T06:21:08;6.10;;;3.95;;
69417;SDS011;56610;48.872;2.400;2022-09-23T06:23:36;7.70;;;4.13;;
69417;SDS011;56610;48.872;2.400;2022-09-23T06:26:05;7.38;;;4.43;;
69417;SDS011;56610;48.872;2.400;2022-09-23T06:28:33;8.55;;;4.53;;
69417;SDS011;56610;48.872;2.400;2022-09-23T06:31:01;5.43;;;3.95;;
69417;SDS011;56610;48.872;2.400;2022-09-23T06:33:29;7.35;;;3.80;;
69417;SDS011;56610;48.872;2.400;2022-09-23T06:35:55;5.93;;;3.38;;
69417;SDS011;56610;48.872;2.400;2022-09-23T06:38:22;4.47;;;3.60;;
69417;SDS011;56610;48.872;2.400;2022-09-23T06:40:48;5.28;;;3.80;;
69417;SDS011;56610;48.872;2.400;2022-09-23T06:43:15;6.65;;;3.50;;
69417;SDS011;56610;48.872;2.400;2022-09-23T06:45:40;5.40;;;4.03;;
69417;SDS011;56610;48.872;2.400;2022-09-23T06:48:06;5.75;;;3.63;;
69417;SDS011;56610;48.872;2.400;2022-09-23T06:50:32;7.95;;;3.90;;
69417;SDS011;56610;48.872;2.400;2022-09-23T06:52:57;5.22;;;3.80;;
69417;SDS011;56610;48.872;2.400;2022-09-23T06:55:24;7.95;;;4.00;;
69417;SDS011;56610;48.872;2.400;2022-09-23T06:57:51;7.07;;;3.78;;
69417;SDS011;56610;48.872;2.400;2022-09-23T07:00:18;8.15;;;3.90;;
69417;SDS011;56610;48.872;2.400;2022-09-23T07:02:44;5.97;;;3.80;;
69417;SDS011;56610;48.872;2.400;2022-09-23T07:05:10;5.90;;;3.70;;
69417;SDS011;56610;48.872;2.400;2022-09-23T07:07:36;6.60;;;3.72;;
69417;SDS011;56610;48.872;2.400;2022-09-23T07:10:04;7.57;;;4.05;;
69417;SDS011;56610;48.872;2.400;2022-09-23T07:12:33;6.93;;;4.30;;
69417;SDS011;56610;48.872;2.400;2022-09-23T07:14:59;8.25;;;4.35;;
69417;SDS011;56610;48.872;2.400;2022-09-23T07:17:24;6.93;;;4.22;;
69417;SDS011;56610;48.872;2.400;2022-09-23T07:19:50;6.93;;;4.53;;
69417;SDS011;56610;48.872;2.400;2022-09-23T07:22:36;6.05;;;4.13;;
69417;SDS011;56610;48.872;2.400;2022-09-23T07:25:02;6.60;;;4.13;;
69417;SDS011;56610;48.872;2.400;2022-09-23T07:27:30;10.00;;;4.13;;
69417;SDS011;56610;48.872;2.400;2022-09-23T07:29:55;9.63;;;4.43;;
69417;SDS011;56610;48.872;2.400;2022-09-23T07:32:21;9.13;;;4.53;;
69417;SDS011;56610;48.872;2.400;2022-09-23T07:34:47;6.68;;;3.85;;
69417;SDS011;56610;48.872;2.400;2022-09-23T07:37:16;9.40;;;3.90;;
69417;SDS011;56610;48.872;2.400;2022-09-23T07:39:42;9.43;;;4.45;;
69417;SDS011;56610;48.872;2.400;2022-09-23T07:42:08;9.45;;;5.10;;
69417;SDS011;56610;48.872;2.400;2022-09-23T07:44:37;9.55;;;4.40;;
69417;SDS011;56610;48.872;2.400;2022-09-23T07:47:03;10.38;;;4.13;;
69417;SDS011;56610;48.872;2.400;2022-09-23T07:49:30;9.88;;;4.40;;
69417;SDS011;56610;48.872;2.400;2022-09-23T07:51:58;9.23;;;4.80;;
69417;SDS011;56610;48.872;2.400;2022-09-23T07:54:24;8.98;;;5.00;;
69417;SDS011;56610;48.872;2.400;2022-09-23T07:56:53;9.95;;;4.65;;
69417;SDS011;56610;48.872;2.400;2022-09-23T07:59:19;8.88;;;4.85;;
69417;SDS011;56610;48.872;2.400;2022-09-23T08:01:49;10.63;;;4.07;;
69417;SDS011;56610;48.872;2.400;2022-09-23T08:06:51;8.63;;;3.92;;
69417;SDS011;56610;48.872;2.400;2022-09-23T08:09:18;8.45;;;4.80;;
69417;SDS011;56610;48.872;2.400;2022-09-23T08:11:47;9.57;;;4.40;;
69417;SDS011;56610;48.872;2.400;2022-09-23T08:14:13;6.13;;;4.03;;
69417;SDS011;56610;48.872;2.400;2022-09-23T08:16:40;9.05;;;4.75;;
69417;SDS011;56610;48.872;2.400;2022-09-23T08:19:06;12.13;;;5.10;;
69417;SDS011;56610;48.872;2.400;2022-09-23T08:21:32;6.18;;;4.63;;
69417;SDS011;56610;48.872;2.400;2022-09-23T08:23:58;6.72;;;4.57;;
69417;SDS011;56610;48.872;2.400;2022-09-23T08:26:24;9.95;;;4.60;;
69417;SDS011;56610;48.872;2.400;2022-09-23T08:28:50;10.45;;;4.78;;
69417;SDS011;56610;48.872;2.400;2022-09-23T08:31:18;8.23;;;4.53;;
69417;SDS011;56610;48.872;2.400;2022-09-23T08:33:44;7.38;;;5.30;;
69417;SDS011;56610;48.872;2.400;2022-09-23T08:36:09;10.23;;;4.50;;
69417;SDS011;56610;48.872;2.400;2022-09-23T08:38:35;8.60;;;5.03;;
69417;SDS011;56610;48.872;2.400;2022-09-23T08:44:22;9.05;;;4.28;;
69417;SDS011;56610;48.872;2.400;2022-09-23T08:50:02;6.30;;;4.22;;
69417;SDS011;56610;48.872;2.400;2022-09-23T08:55:14;12.90;;;4.68;;
69417;SDS011;56610;48.872;2.400;2022-09-23T08:57:48;9.65;;;4.90;;
69417;SDS011;56610;48.872;2.400;2022-09-23T09:00:53;11.10;;;5.03;;
69417;SDS011;56610;48.872;2.400;2022-09-23T09:03:25;9.57;;;4.85;;
69417;SDS011;56610;48.872;2.400;2022-09-23T09:05:58;13.35;;;4.90;;
69417;SDS011;56610;48.872;2.400;2022-09-23T09:08:25;11.48;;;5.22;;
69417;SDS011;56610;48.872;2.400;2022-09-23T09:10:56;9.73;;;4.50;;
69417;SDS011;56610;48.872;2.400;2022-09-23T09:16:24;9.45;;;4.97;;
69417;SDS011;56610;48.872;2.400;2022-09-23T09:19:18;6.18;;;4.68;;
69417;SDS011;56610;48.872;2.400;2022-09-23T09:21:46;11.60;;;4.90;;
69417;SDS011;56610;48.872;2.400;2022-09-23T09:24:18;8.77;;;4.72;;
69417;SDS011;56610;48.872;2.400;2022-09-23T09:26:54;7.45;;;4.65;;
69417;SDS011;56610;48.872;2.400;2022-09-23T09:29:24;9.18;;;5.32;;
69417;SDS011;56610;48.872;2.400;2022-09-23T09:31:55;9.68;;;5.70;;
69417;SDS011;56610;48.872;2.400;2022-09-23T09:34:37;11.52;;;5.18;;
69417;SDS011;56610;48.872;2.400;2022-09-23T09:37:09;11.23;;;5.95;;
69417;SDS011;56610;48.872;2.400;2022-09-23T09:39:41;11.02;;;6.15;;
69417;SDS011;56610;48.872;2.400;2022-09-23T09:42:08;10.75;;;6.13;;
69417;SDS011;56610;48.872;2.400;2022-09-23T09:44:45;9.18;;;5.10;;
69417;SDS011;56610;48.872;2.400;2022-09-23T09:50:02;11.52;;;6.55;;
69417;SDS011;56610;48.872;2.400;2022-09-23T09:52:34;9.18;;;6.18;;
69417;SDS011;56610;48.872;2.400;2022-09-23T09:57:45;8.50;;;6.13;;
69417;SDS011;56610;48.872;2.400;2022-09-23T10:02:43;11.02;;;6.03;;
69417;SDS011;56610;48.872;2.400;2022-09-23T10:05:32;8.70;;;5.50;;
69417;SDS011;56610;48.872;2.400;2022-09-23T10:11:08;11.27;;;6.45;;
69417;SDS011;56610;48.872;2.400;2022-09-23T10:13:40;9.43;;;5.43;;
69417;SDS011;56610;48.872;2.400;2022-09-23T10:16:06;12.83;;;5.80;;
69417;SDS011;56610;48.872;2.400;2022-09-23T10:21:14;10.35;;;5.95;;
69417;SDS011;56610;48.872;2.400;2022-09-23T10:23:51;8.48;;;5.60;;
69417;SDS011;56610;48.872;2.400;2022-09-23T10:26:29;10.32;;;6.43;;
69417;SDS011;56610;48.872;2.400;2022-09-23T10:28:57;10.93;;;5.95;;
69417;SDS011;56610;48.872;2.400;2022-09-23T10:31:28;12.13;;;6.30;;
69417;SDS011;56610;48.872;2.400;2022-09-23T10:34:00;11.07;;;6.38;;
69417;SDS011;56610;48.872;2.400;2022-09-23T10:36:44;9.65;;;6.43;;
69417;SDS011;56610;48.872;2.400;2022-09-23T10:39:32;12.43;;;6.22;;
69417;SDS011;56610;48.872;2.400;2022-09-23T10:42:23;10.15;;;5.65;;
69417;SDS011;56610;48.872;2.400;2022-09-23T10:51:36;11.65;;;6.28;;
69417;SDS011;56610;48.872;2.400;2022-09-23T10:54:21;9.20;;;5.72;;
69417;SDS011;56610;48.872;2.400;2022-09-23T10:56:49;11.48;;;5.82;;
69417;SDS011;56610;48.872;2.400;2022-09-23T11:02:33;8.25;;;5.10;;
69417;SDS011;56610;48.872;2.400;2022-09-23T11:05:23;13.23;;;5.55;;
69417;SDS011;56610;48.872;2.400;2022-09-23T11:07:56;11.20;;;5.60;;
69417;SDS011;56610;48.872;2.400;2022-09-23T11:13:46;10.45;;;5.53;;
69417;SDS011;56610;48.872;2.400;2022-09-23T11:27:36;8.88;;;4.82;;
69417;SDS011;56610;48.872;2.400;2022-09-23T11:30:27;9.75;;;5.60;;
69417;SDS011;56610;48.872;2.400;2022-09-23T11:36:07;11.85;;;5.75;;
69417;SDS011;56610;48.872;2.400;2022-09-23T11:38:42;10.10;;;5.80;;
69417;SDS011;56610;48.872;2.400;2022-09-23T11:44:02;7.75;;;5.10;;
69417;SDS011;56610;48.872;2.400;2022-09-23T11:46:39;7.28;;;4.75;;
69417;SDS011;56610;48.872;2.400;2022-09-23T11:52:12;10.70;;;4.80;;
69417;SDS011;56610;48.872;2.400;2022-09-23T11:57:30;6.13;;;4.55;;
69417;SDS011;56610;48.872;2.400;2022-09-23T12:00:03;8.65;;;4.70;;
69417;SDS011;56610;48.872;2.400;2022-09-23T12:05:14;9.88;;;4.90;;
69417;SDS011;56610;48.872;2.400;2022-09-23T12:07:47;7.07;;;4.78;;
69417;SDS011;56610;48.872;2.400;2022-09-23T12:10:18;9.70;;;4.88;;
69417;SDS011;56610;48.872;2.400;2022-09-23T12:13:03;8.57;;;4.38;;
69417;SDS011;56610;48.872;2.400;2022-09-23T12:18:35;7.15;;;4.40;;
69417;SDS011;56610;48.872;2.400;2022-09-23T12:23:59;6.88;;;4.38;;
69417;SDS011;56610;48.872;2.400;2022-09-23T12:26:31;4.90;;;3.78;;
69417;SDS011;56610;48.872;2.400;2022-09-23T12:28:59;7.97;;;3.85;;
69417;SDS011;56610;48.872;2.400;2022-09-23T12:31:27;8.20;;;4.03;;
69417;SDS011;56610;48.872;2.400;2022-09-23T12:33:57;5.93;;;3.50;;
69417;SDS011;56610;48.872;2.400;2022-09-23T12:36:25;5.97;;;3.42;;
69417;SDS011;56610;48.872;2.400;2022-09-23T12:39:16;6.22;;;3.15;;
69417;SDS011;56610;48.872;2.400;2022-09-23T12:41:42;5.55;;;3.35;;
69417;SDS011;56610;48.872;2.400;2022-09-23T12:47:28;6.25;;;3.58;;
69417;SDS011;56610;48.872;2.400;2022-09-23T12:49:56;6.80;;;3.55;;
69417;SDS011;56610;48.872;2.400;2022-09-23T12:52:24;6.20;;;3.60;;
69417;SDS011;56610;48.872;2.400;2022-09-23T12:54:54;8.02;;;3.33;;
69417;SDS011;56610;48.872;2.400;2022-09-23T13:05:21;4.25;;;2.95;;
69417;SDS011;56610;48.872;2.400;2022-09-23T13:08:28;4.53;;;3.00;;
69417;SDS011;56610;48.872;2.400;2022-09-23T13:10:55;4.50;;;3.05;;
69417;SDS011;56610;48.872;2.400;2022-09-23T13:13:28;4.57;;;2.30;;
69417;SDS011;56610;48.872;2.400;2022-09-23T13:16:10;4.07;;;2.30;;
69417;SDS011;56610;48.872;2.400;2022-09-23T13:18:52;5.00;;;2.47;;
69417;SDS011;56610;48.872;2.400;2022-09-23T13:22:04;7.68;;;2.55;;
69417;SDS011;56610;48.872;2.400;2022-09-23T13:26:54;4.78;;;2.15;;
69417;SDS011;56610;48.872;2.400;2022-09-23T13:31:59;6.40;;;3.40;;
69417;SDS011;56610;48.872;2.400;2022-09-23T13:34:29;5.28;;;2.97;;
69417;SDS011;56610;48.872;2.400;2022-09-23T13:36:57;5.18;;;2.88;;
69417;SDS011;56610;48.872;2.400;2022-09-23T13:39:45;6.50;;;2.67;;
69417;SDS011;56610;48.872;2.400;2022-09-23T13:42:24;6.00;;;2.95;;
69417;SDS011;56610;48.872;2.400;2022-09-23T13:44:55;6.50;;;3.22;;
69417;SDS011;56610;48.872;2.400;2022-09-23T13:47:26;3.95;;;2.70;;
69417;SDS011;56610;48.872;2.400;2022-09-23T13:49:54;4.15;;;2.78;;
69417;SDS011;56610;48.872;2.400;2022-09-23T13:52:30;5.55;;;2.60;;
69417;SDS011;56610;48.872;2.400;2022-09-23T13:54:57;3.45;;;2.05;;
69417;SDS011;56610;48.872;2.400;2022-09-23T13:57:27;4.20;;;2.28;;
69417;SDS011;56610;48.872;2.400;2022-09-23T13:59:58;4.22;;;2.20;;
69417;SDS011;56610;48.872;2.400;2022-09-23T14:02:25;6.38;;;2.28;;
69417;SDS011;56610;48.872;2.400;2022-09-23T14:04:54;5.37;;;2.50;;
69417;SDS011;56610;48.872;2.400;2022-09-23T14:07:22;4.53;;;3.83;;
69417;SDS011;56610;48.872;2.400;2022-09-23T14:09:49;3.78;;;2.53;;
69417;SDS011;56610;48.872;2.400;2022-09-23T14:12:16;3.60;;;2.22;;
69417;SDS011;56610;48.872;2.400;2022-09-23T14:14:46;7.97;;;2.92;;
69417;SDS011;56610;48.872;2.400;2022-09-23T14:19:44;4.95;;;2.30;;
69417;SDS011;56610;48.872;2.400;2022-09-23T14:22:23;4.20;;;2.05;;
69417;SDS011;56610;48.872;2.400;2022-09-23T14:24:53;2.50;;;1.95;;
69417;SDS011;56610;48.872;2.400;2022-09-23T14:27:26;4.25;;;2.20;;
69417;SDS011;56610;48.872;2.400;2022-09-23T14:29:55;6.47;;;2.20;;
69417;SDS011;56610;48.872;2.400;2022-09-23T14:32:22;3.70;;;2.22;;
69417;SDS011;56610;48.872;2.400;2022-09-23T14:34:52;4.43;;;2.38;;
69417;SDS011;56610;48.872;2.400;2022-09-23T14:40:20;3.97;;;2.38;;
69417;SDS011;56610;48.872;2.400;2022-09-23T14:42:51;3.75;;;2.03;;
69417;SDS011;56610;48.872;2.400;2022-09-23T14:45:42;4.05;;;2.13;;
69417;SDS011;56610;48.872;2.400;2022-09-23T14:48:12;3.55;;;2.30;;
69417;SDS011;56610;48.872;2.400;2022-09-23T14:50:48;3.10;;;1.70;;
69417;SDS011;56610;48.872;2.400;2022-09-23T14:56:07;3.47;;;2.15;;
69417;SDS011;56610;48.872;2.400;2022-09-23T14:58:52;2.60;;;1.80;;
69417;SDS011;56610;48.872;2.400;2022-09-23T15:01:26;3.38;;;2.17;;
69417;SDS011;56610;48.872;2.400;2022-09-23T15:03:57;3.97;;;1.90;;
69417;SDS011;56610;48.872;2.400;2022-09-23T15:06:37;5.32;;;2.30;;
69417;SDS011;56610;48.872;2.400;2022-09-23T15:09:05;4.30;;;2.00;;
69417;SDS011;56610;48.872;2.400;2022-09-23T15:11:31;2.88;;;2.10;;
69417;SDS011;56610;48.872;2.400;2022-09-23T15:14:00;3.72;;;2.08;;
69417;SDS011;56610;48.872;2.400;2022-09-23T15:16:28;4.45;;;1.90;;
69417;SDS011;56610;48.872;2.400;2022-09-23T15:18:55;4.68;;;2.35;;
69417;SDS011;56610;48.872;2.400;2022-09-23T15:21:23;4.72;;;2.03;;
69417;SDS011;56610;48.872;2.400;2022-09-23T15:23:55;3.50;;;2.00;;
69417;SDS011;56610;48.872;2.400;2022-09-23T15:26:25;3.55;;;2.03;;
69417;SDS011;56610;48.872;2.400;2022-09-23T15:29:06;5.05;;;1.90;;
69417;SDS011;56610;48.872;2.400;2022-09-23T15:31:33;3.38;;;1.65;;
69417;SDS011;56610;48.872;2.400;2022-09-23T15:34:00;2.53;;;1.90;;
69417;SDS011;56610;48.872;2.400;2022-09-23T15:36:26;4.18;;;1.80;;
69417;SDS011;56610;48.872;2.400;2022-09-23T15:38:53;3.08;;;1.67;;
69417;SDS011;56610;48.872;2.400;2022-09-23T15:41:22;2.05;;;1.60;;
69417;SDS011;56610;48.872;2.400;2022-09-23T15:43:48;4.22;;;1.90;;
69417;SDS011;56610;48.872;2.400;2022-09-23T15:48:59;3.63;;;2.05;;
69417;SDS011;56610;48.872;2.400;2022-09-23T15:51:28;4.43;;;2.00;;
69417;SDS011;56610;48.872;2.400;2022-09-23T15:53:54;2.65;;;1.90;;
69417;SDS011;56610;48.872;2.400;2022-09-23T15:56:21;3.00;;;1.92;;
69417;SDS011;56610;48.872;2.400;2022-09-23T15:58:47;6.82;;;2.35;;
69417;SDS011;56610;48.872;2.400;2022-09-23T16:01:17;2.83;;;1.85;;
69417;SDS011;56610;48.872;2.400;2022-09-23T16:03:50;5.03;;;1.67;;
69417;SDS011;56610;48.872;2.400;2022-09-23T16:06:15;4.68;;;2.40;;
69417;SDS011;56610;48.872;2.400;2022-09-23T16:08:41;4.75;;;2.08;;
69417;SDS011;56610;48.872;2.400;2022-09-23T16:11:23;2.95;;;1.70;;
69417;SDS011;56610;48.872;2.400;2022-09-23T16:13:54;3.33;;;1.88;;
69417;SDS011;56610;48.872;2.400;2022-09-23T16:16:19;4.80;;;2.13;;
69417;SDS011;56610;48.872;2.400;2022-09-23T16:18:45;2.60;;;1.88;;
69417;SDS011;56610;48.872;2.400;2022-09-23T16:21:15;2.60;;;1.85;;
69417;SDS011;56610;48.872;2.400;2022-09-23T16:23:44;4.55;;;1.95;;
69417;SDS011;56610;48.872;2.400;2022-09-23T16:28:39;2.70;;;1.60;;
69417;SDS011;56610;48.872;2.400;2022-09-23T16:31:05;4.30;;;1.58;;
69417;SDS011;56610;48.872;2.400;2022-09-23T16:33:30;3.22;;;1.50;;
69417;SDS011;56610;48.872;2.400;2022-09-23T16:35:56;3.00;;;1.73;;
69417;SDS011;56610;48.872;2.400;2022-09-23T16:38:24;4.40;;;1.88;;
69417;SDS011;56610;48.872;2.400;2022-09-23T16:40:50;2.75;;;1.80;;
69417;SDS011;56610;48.872;2.400;2022-09-23T16:43:16;4.40;;;2.10;;
69417;SDS011;56610;48.872;2.400;2022-09-23T16:45:42;2.85;;;1.50;;
69417;SDS011;56610;48.872;2.400;2022-09-23T16:48:09;6.22;;;1.73;;
69417;SDS011;56610;48.872;2.400;2022-09-23T16:50:36;4.65;;;2.10;;
69417;SDS011;56610;48.872;2.400;2022-09-23T16:53:01;2.03;;;1.52;;
69417;SDS011;56610;48.872;2.400;2022-09-23T16:55:27;3.13;;;2.13;;
69417;SDS011;56610;48.872;2.400;2022-09-23T16:57:53;5.03;;;2.15;;
69417;SDS011;56610;48.872;2.400;2022-09-23T17:00:19;3.88;;;2.15;;
69417;SDS011;56610;48.872;2.400;2022-09-23T17:03:04;4.93;;;2.22;;
69417;SDS011;56610;48.872;2.400;2022-09-23T17:05:48;2.83;;;2.20;;
69417;SDS011;56610;48.872;2.400;2022-09-23T17:08:15;5.13;;;2.30;;
69417;SDS011;56610;48.872;2.400;2022-09-23T17:10:42;3.72;;;1.83;;
69417;SDS011;56610;48.872;2.400;2022-09-23T17:13:09;4.60;;;1.85;;
69417;SDS011;56610;48.872;2.400;2022-09-23T17:15:36;4.60;;;2.00;;
69417;SDS011;56610;48.872;2.400;2022-09-23T17:18:04;5.18;;;2.15;;
69417;SDS011;56610;48.872;2.400;2022-09-23T17:20:30;3.75;;;2.10;;
69417;SDS011;56610;48.872;2.400;2022-09-23T17:22:56;3.63;;;2.25;;
69417;SDS011;56610;48.872;2.400;2022-09-23T17:25:21;2.30;;;2.03;;
69417;SDS011;56610;48.872;2.400;2022-09-23T17:27:47;5.25;;;2.55;;
69417;SDS011;56610;48.872;2.400;2022-09-23T17:30:13;3.80;;;2.50;;